createdAt,value
2022-12-04T00:00:00.597Z,3.10
2022-12-04T00:02:27.370Z,3.10
2022-12-04T00:04:54.059Z,3.20
2022-12-04T00:07:20.655Z,3.20
2022-12-04T00:09:47.215Z,3.20
2022-12-04T00:12:13.772Z,3.20
2022-12-04T00:15:16.127Z,3.10
2022-12-04T00:17:26.970Z,3.20
2022-12-04T00:19:53.740Z,3.30
2022-12-04T00:22:21.117Z,3.40
2022-12-04T00:24:47.770Z,3.40
2022-12-04T00:27:14.291Z,3.40
2022-12-04T00:29:40.840Z,3.40
2022-12-04T00:32:07.453Z,3.30
2022-12-04T00:34:34.044Z,3.20
2022-12-04T00:37:00.638Z,3.20
2022-12-04T00:39:27.165Z,3.20
2022-12-04T00:41:53.707Z,3.30
2022-12-04T00:44:20.330Z,3.30
2022-12-04T00:46:46.845Z,3.40
2022-12-04T00:49:13.396Z,3.30
2022-12-04T00:51:40.037Z,3.30
2022-12-04T00:54:06.615Z,3.30
2022-12-04T00:56:33.138Z,3.30
2022-12-04T00:59:01.114Z,3.50
2022-12-04T01:01:28.491Z,3.40
2022-12-04T01:03:55.338Z,3.40
2022-12-04T01:06:26.590Z,3.30
2022-12-04T01:08:53.766Z,3.40
2022-12-04T01:11:21.567Z,3.30
2022-12-04T01:13:48.352Z,3.40
2022-12-04T01:16:25.508Z,3.50
2022-12-04T01:18:52.226Z,3.40
2022-12-04T01:21:18.989Z,3.40
2022-12-04T01:23:46.026Z,3.40
2022-12-04T01:26:12.800Z,3.40
2022-12-04T01:28:39.498Z,3.30
2022-12-04T01:31:10.291Z,3.30
2022-12-04T01:33:37.531Z,3.30
2022-12-04T01:36:05.081Z,3.30
2022-12-04T01:38:31.615Z,3.30
2022-12-04T01:40:58.702Z,3.40
2022-12-04T01:43:26.006Z,3.30
2022-12-04T01:45:56.627Z,3.30
2022-12-04T01:48:37.228Z,3.40
2022-12-04T01:51:03.861Z,3.40
2022-12-04T01:53:31.217Z,3.50
2022-12-04T01:55:57.835Z,3.50
2022-12-04T01:58:27.211Z,3.40
2022-12-04T02:00:58.444Z,3.40
2022-12-04T02:03:25.670Z,3.40
2022-12-04T02:05:52.303Z,3.40
2022-12-04T02:08:19.034Z,3.40
2022-12-04T02:10:53.784Z,3.50
2022-12-04T02:13:31.149Z,3.50
2022-12-04T02:16:08.675Z,3.60
2022-12-04T02:18:53.887Z,3.50
2022-12-04T02:21:36.073Z,3.50
2022-12-04T02:24:15.039Z,3.50
2022-12-04T02:26:41.623Z,3.40
2022-12-04T02:29:28.430Z,3.40
2022-12-04T02:31:59.531Z,3.30
2022-12-04T02:34:39.802Z,3.30
2022-12-04T02:37:09.806Z,3.40
2022-12-04T02:39:40.204Z,3.40
2022-12-04T02:42:14.864Z,3.50
2022-12-04T02:44:44.502Z,3.40
2022-12-04T02:47:12.799Z,3.50
2022-12-04T02:49:45.218Z,3.50
2022-12-04T02:52:13.453Z,3.40
2022-12-04T02:54:45.703Z,3.40
2022-12-04T02:57:14.979Z,3.40
2022-12-04T02:59:42.522Z,3.40
2022-12-04T03:02:11.278Z,3.60
2022-12-04T03:04:39.516Z,3.50
2022-12-04T03:07:11.790Z,3.50
2022-12-04T03:09:47.546Z,3.60
2022-12-04T03:12:16.287Z,3.50
2022-12-04T03:14:46.083Z,3.40
2022-12-04T03:17:22.794Z,3.40
2022-12-04T03:19:51.446Z,3.40
2022-12-04T03:22:19.515Z,3.40
2022-12-04T03:24:50.044Z,3.40
2022-12-04T03:27:35.471Z,3.40
2022-12-04T03:30:04.938Z,3.40
2022-12-04T03:32:34.905Z,3.40
2022-12-04T03:35:07.860Z,3.30
2022-12-04T03:37:39.278Z,3.30
2022-12-04T03:40:15.019Z,3.30
2022-12-04T03:42:48.771Z,3.50
2022-12-04T03:45:24.492Z,3.40
2022-12-04T03:47:51.020Z,3.40
2022-12-04T03:50:25.452Z,3.40
2022-12-04T03:52:58.159Z,3.40
2022-12-04T03:55:28.836Z,3.50
2022-12-04T03:58:00.991Z,3.60
2022-12-04T04:00:28.997Z,3.50
2022-12-04T04:03:01.078Z,3.50
2022-12-04T04:05:28.737Z,3.40
2022-12-04T04:08:20.618Z,3.40
2022-12-04T04:10:48.517Z,3.40
2022-12-04T04:13:43.204Z,3.40
2022-12-04T04:16:30.250Z,3.30
2022-12-04T04:19:15.706Z,3.40
2022-12-04T04:22:01.862Z,3.50
2022-12-04T04:24:48.612Z,3.50
2022-12-04T04:27:15.167Z,3.50
2022-12-04T04:29:46.689Z,3.40
2022-12-04T04:32:26.714Z,3.30
2022-12-04T04:35:08.154Z,3.30
2022-12-04T04:37:43.131Z,3.40
2022-12-04T04:40:14.153Z,3.30
2022-12-04T04:42:49.911Z,3.30
2022-12-04T04:45:19.576Z,3.30
2022-12-04T04:48:02.268Z,3.30
2022-12-04T04:50:29.266Z,3.30
2022-12-04T04:52:59.450Z,3.30
2022-12-04T04:55:26.253Z,3.40
2022-12-04T04:57:52.888Z,3.30
2022-12-04T05:00:21.167Z,3.40
2022-12-04T05:02:50.068Z,3.60
2022-12-04T05:05:17.880Z,3.50
2022-12-04T05:07:44.448Z,3.50
2022-12-04T05:10:11.093Z,3.50
2022-12-04T05:12:37.652Z,3.50
2022-12-04T05:15:04.478Z,3.40
2022-12-04T05:17:31.000Z,3.40
2022-12-04T05:19:57.998Z,3.40
2022-12-04T05:22:29.647Z,3.40
2022-12-04T05:24:56.370Z,3.40
2022-12-04T05:27:23.369Z,3.40
2022-12-04T05:29:51.701Z,3.30
2022-12-04T05:32:18.220Z,3.30
2022-12-04T05:34:46.912Z,3.30
2022-12-04T05:37:13.474Z,3.30
2022-12-04T05:39:40.034Z,3.30
2022-12-04T05:42:06.562Z,3.30
2022-12-04T05:44:33.122Z,3.30
2022-12-04T05:46:59.790Z,3.20
2022-12-04T05:49:28.528Z,3.20
2022-12-04T05:51:55.216Z,3.20
2022-12-04T05:54:21.760Z,3.30
2022-12-04T05:56:48.372Z,3.30
2022-12-04T05:59:15.306Z,3.20
2022-12-04T06:01:42.334Z,3.30
2022-12-04T06:04:09.327Z,3.30
2022-12-04T06:06:36.155Z,3.20
2022-12-04T06:09:02.833Z,3.20
2022-12-04T06:11:31.191Z,3.20
2022-12-04T06:13:58.932Z,3.10
2022-12-04T06:16:27.081Z,3.10
2022-12-04T06:19:04.832Z,3.20
2022-12-04T06:21:34.527Z,3.10
2022-12-04T06:24:01.155Z,3.20
2022-12-04T06:26:27.829Z,3.30
2022-12-04T06:28:55.007Z,3.30
2022-12-04T06:31:21.595Z,3.30
2022-12-04T06:33:48.338Z,3.30
2022-12-04T06:36:16.445Z,3.20
2022-12-04T06:38:43.495Z,3.30
2022-12-04T06:41:12.007Z,3.20
2022-12-04T06:43:38.876Z,3.10
2022-12-04T06:46:06.903Z,3.00
2022-12-04T06:48:34.017Z,3.00
2022-12-04T06:51:05.156Z,3.00
2022-12-04T06:53:32.452Z,3.10
2022-12-04T06:56:00.258Z,3.10
2022-12-04T06:58:27.419Z,3.10
2022-12-04T07:00:54.577Z,3.00
2022-12-04T07:03:21.588Z,2.90
2022-12-04T07:05:48.114Z,2.90
2022-12-04T07:08:15.135Z,3.00
2022-12-04T07:10:41.780Z,3.10
2022-12-04T07:13:08.576Z,3.00
2022-12-04T07:15:35.839Z,3.00
2022-12-04T07:18:02.400Z,3.00
2022-12-04T07:20:28.961Z,3.00
2022-12-04T07:22:55.507Z,3.00
2022-12-04T07:25:22.181Z,3.00
2022-12-04T07:27:48.829Z,3.10
2022-12-04T07:30:15.924Z,3.10
2022-12-04T07:32:42.875Z,3.10
2022-12-04T07:35:09.499Z,3.10
2022-12-04T07:37:36.299Z,3.10
2022-12-04T07:40:03.874Z,3.10
2022-12-04T07:42:30.421Z,3.10
2022-12-04T07:44:56.966Z,3.20
2022-12-04T07:47:23.521Z,3.20
2022-12-04T07:49:50.186Z,3.20
2022-12-04T07:52:16.695Z,3.30
2022-12-04T07:54:43.214Z,3.30
2022-12-04T07:57:09.821Z,3.30
2022-12-04T07:59:36.471Z,3.30
2022-12-04T08:02:05.215Z,3.30
2022-12-04T08:04:33.595Z,3.40
2022-12-04T08:07:00.212Z,3.40
2022-12-04T08:09:26.744Z,3.40
2022-12-04T08:11:53.337Z,3.40
2022-12-04T08:14:19.969Z,3.40
2022-12-04T08:16:52.720Z,3.50
2022-12-04T08:19:19.812Z,3.60
2022-12-04T08:21:46.375Z,3.60
2022-12-04T08:24:12.923Z,3.60
2022-12-04T08:26:39.512Z,3.60
2022-12-04T08:29:06.561Z,3.70
2022-12-04T08:31:34.184Z,3.70
2022-12-04T08:34:02.652Z,3.60
2022-12-04T08:36:29.455Z,3.60
2022-12-04T08:38:56.244Z,3.60
2022-12-04T08:41:24.541Z,3.60
2022-12-04T08:43:51.664Z,3.60
2022-12-04T08:46:18.617Z,3.60
2022-12-04T08:48:45.891Z,3.50
2022-12-04T08:51:14.722Z,3.50
2022-12-04T08:53:41.241Z,3.50
2022-12-04T08:56:07.943Z,3.50
2022-12-04T08:58:34.530Z,3.60
2022-12-04T09:01:07.923Z,3.60
2022-12-04T09:03:35.119Z,3.60
2022-12-04T09:06:02.395Z,3.60
2022-12-04T09:08:29.311Z,3.70
2022-12-04T09:10:55.984Z,3.70
2022-12-04T09:13:22.535Z,3.70
2022-12-04T09:15:49.080Z,3.70
2022-12-04T09:18:15.834Z,3.70
2022-12-04T09:20:42.477Z,3.80
2022-12-04T09:23:08.998Z,3.80
2022-12-04T09:25:36.411Z,3.80
2022-12-04T09:28:03.484Z,3.90
2022-12-04T09:30:30.042Z,3.90
2022-12-04T09:32:56.615Z,4.00
2022-12-04T09:35:23.217Z,3.90
2022-12-04T09:37:49.743Z,4.00
2022-12-04T09:40:32.071Z,4.10
2022-12-04T09:43:11.594Z,4.20
2022-12-04T09:45:45.305Z,4.30
2022-12-04T09:48:12.482Z,4.30
2022-12-04T09:50:40.942Z,4.40
2022-12-04T09:53:22.650Z,4.30
2022-12-04T09:55:58.366Z,4.30
2022-12-04T09:58:28.456Z,4.40
2022-12-04T10:00:55.538Z,4.40
2022-12-04T10:03:24.895Z,4.30
2022-12-04T10:06:03.871Z,4.20
2022-12-04T10:08:39.080Z,4.00
2022-12-04T10:11:17.686Z,4.10
2022-12-04T10:13:56.699Z,4.20
2022-12-04T10:16:42.113Z,4.10
2022-12-04T10:19:27.361Z,4.20
2022-12-04T10:22:12.822Z,4.20
2022-12-04T10:25:06.983Z,4.20
2022-12-04T10:27:36.492Z,4.20
2022-12-04T10:30:07.518Z,4.30
2022-12-04T10:32:34.721Z,4.30
2022-12-04T10:35:30.714Z,4.30
2022-12-04T10:37:59.844Z,4.30
2022-12-04T10:40:30.023Z,4.30
2022-12-04T10:43:19.612Z,4.40
2022-12-04T10:45:46.355Z,4.30
2022-12-04T10:48:18.382Z,4.20
2022-12-04T10:50:45.490Z,4.40
2022-12-04T10:53:14.608Z,4.50
2022-12-04T10:55:41.141Z,4.50
2022-12-04T10:58:20.631Z,4.50
2022-12-04T11:01:00.578Z,4.40
2022-12-04T11:03:28.367Z,4.50
2022-12-04T11:05:56.679Z,4.40
2022-12-04T11:08:24.489Z,4.30
2022-12-04T11:11:00.235Z,4.20
2022-12-04T11:13:27.163Z,4.20
2022-12-04T11:15:55.298Z,4.30
2022-12-04T11:18:32.668Z,4.50
2022-12-04T11:21:14.773Z,4.50
2022-12-04T11:23:46.648Z,4.50
2022-12-04T11:26:13.448Z,4.70
2022-12-04T11:28:43.586Z,4.70
2022-12-04T11:31:15.699Z,4.70
2022-12-04T11:33:48.074Z,4.80
2022-12-04T11:36:19.491Z,4.70
2022-12-04T11:38:46.249Z,4.80
2022-12-04T11:41:26.163Z,4.70
2022-12-04T11:43:58.068Z,4.50
2022-12-04T11:46:28.550Z,4.40
2022-12-04T11:48:55.436Z,4.20
2022-12-04T11:51:21.923Z,4.20
2022-12-04T11:53:50.836Z,4.30
2022-12-04T11:56:26.706Z,4.30
2022-12-04T11:59:12.174Z,4.50
2022-12-04T12:01:58.772Z,4.60
2022-12-04T12:04:34.928Z,4.60
2022-12-04T12:07:19.877Z,4.50
2022-12-04T12:09:53.421Z,4.40
2022-12-04T12:12:25.654Z,4.30
2022-12-04T12:15:13.099Z,4.30
2022-12-04T12:17:43.339Z,4.30
2022-12-04T12:20:13.113Z,4.30
2022-12-04T12:22:42.692Z,4.30
2022-12-04T12:25:19.318Z,4.30
2022-12-04T12:27:52.540Z,4.30
2022-12-04T12:30:20.292Z,4.20
2022-12-04T12:33:02.635Z,4.30
2022-12-04T12:35:41.573Z,4.30
2022-12-04T12:38:21.051Z,4.30
2022-12-04T12:40:50.088Z,4.30
2022-12-04T12:43:21.978Z,4.40
2022-12-04T12:45:56.902Z,4.50
2022-12-04T12:48:37.065Z,4.50
2022-12-04T12:51:35.293Z,4.50
2022-12-04T12:54:09.484Z,4.50
2022-12-04T12:56:39.926Z,4.60
2022-12-04T12:59:15.347Z,4.60
2022-12-04T13:01:45.139Z,4.60
2022-12-04T13:04:27.134Z,4.70
2022-12-04T13:07:12.892Z,4.80
2022-12-04T13:09:42.121Z,4.80
2022-12-04T13:12:11.493Z,4.70
2022-12-04T13:14:38.275Z,4.70
2022-12-04T13:17:11.429Z,4.70
2022-12-04T13:19:43.334Z,4.70
2022-12-04T13:22:28.675Z,4.70
2022-12-04T13:25:16.408Z,4.70
2022-12-04T13:27:43.116Z,4.60
2022-12-04T13:30:14.386Z,4.50
2022-12-04T13:32:56.474Z,4.50
2022-12-04T13:35:32.706Z,4.40
2022-12-04T13:38:18.256Z,4.60
2022-12-04T13:40:48.100Z,4.60
2022-12-04T13:43:14.881Z,4.60
2022-12-04T13:45:41.586Z,4.60
2022-12-04T13:48:09.565Z,4.50
2022-12-04T13:50:37.358Z,4.40
2022-12-04T13:53:04.374Z,4.50
2022-12-04T13:55:38.581Z,4.40
2022-12-04T13:58:11.324Z,4.40
2022-12-04T14:00:45.199Z,4.40
2022-12-04T14:03:25.637Z,4.50
2022-12-04T14:05:52.676Z,4.50
2022-12-04T14:08:23.188Z,4.40
2022-12-04T14:11:06.041Z,4.40
2022-12-04T14:13:55.848Z,4.50
2022-12-04T14:16:24.318Z,4.40
2022-12-04T14:18:56.222Z,4.50
2022-12-04T14:21:23.319Z,4.50
2022-12-04T14:23:50.731Z,4.40
2022-12-04T14:26:21.665Z,4.50
2022-12-04T14:28:48.900Z,4.50
2022-12-04T14:31:33.943Z,4.50
2022-12-04T14:34:15.919Z,4.40
2022-12-04T14:36:43.849Z,4.30
2022-12-04T14:39:31.210Z,4.30
2022-12-04T14:42:06.114Z,4.30
2022-12-04T14:44:32.906Z,4.30
2022-12-04T14:47:06.240Z,4.40
2022-12-04T14:49:53.545Z,4.50
2022-12-04T14:52:32.770Z,4.50
2022-12-04T14:55:07.386Z,4.50
2022-12-04T14:57:52.337Z,4.50
2022-12-04T15:00:22.200Z,4.40
2022-12-04T15:02:50.048Z,4.40
2022-12-04T15:05:19.810Z,4.40
2022-12-04T15:07:50.903Z,4.60
2022-12-04T15:10:38.754Z,4.50
2022-12-04T15:13:05.577Z,4.50
2022-12-04T15:15:32.290Z,4.50
2022-12-04T15:18:19.208Z,4.50
2022-12-04T15:20:48.613Z,4.70
2022-12-04T15:23:33.526Z,4.70
2022-12-04T15:26:09.232Z,4.80
2022-12-04T15:28:43.967Z,4.60
2022-12-04T15:31:14.236Z,4.70
2022-12-04T15:33:41.203Z,4.70
2022-12-04T15:36:27.756Z,4.60
2022-12-04T15:38:54.533Z,4.60
2022-12-04T15:41:30.285Z,4.70
2022-12-04T15:43:56.901Z,4.70
2022-12-04T15:46:25.105Z,4.80
2022-12-04T15:48:51.731Z,4.80
2022-12-04T15:51:20.459Z,4.70
2022-12-04T15:53:47.436Z,4.80
2022-12-04T15:56:18.360Z,4.80
2022-12-04T15:59:05.261Z,4.80
2022-12-04T16:01:38.776Z,4.80
2022-12-04T16:04:05.393Z,4.80
2022-12-04T16:06:33.625Z,4.90
2022-12-04T16:09:18.051Z,4.90
2022-12-04T16:11:44.711Z,4.90
2022-12-04T16:14:11.233Z,4.90
2022-12-04T16:16:42.038Z,4.80
2022-12-04T16:19:09.682Z,4.80
2022-12-04T16:21:36.217Z,4.90
2022-12-04T16:24:03.763Z,4.90
2022-12-04T16:26:30.548Z,5.00
2022-12-04T16:28:57.265Z,4.90
2022-12-04T16:31:24.223Z,4.90
2022-12-04T16:33:50.844Z,4.90
2022-12-04T16:36:17.735Z,4.80
2022-12-04T16:38:44.416Z,4.80
2022-12-04T16:41:14.389Z,4.90
2022-12-04T16:43:41.256Z,5.00
2022-12-04T16:46:17.496Z,5.10
2022-12-04T16:48:44.154Z,5.10
2022-12-04T16:51:15.140Z,5.10
2022-12-04T16:53:41.699Z,5.00
2022-12-04T16:56:08.784Z,4.90
2022-12-04T16:58:35.351Z,4.80
2022-12-04T17:01:03.242Z,4.80
2022-12-04T17:03:32.322Z,4.80
2022-12-04T17:06:00.259Z,4.80
2022-12-04T17:08:27.299Z,4.80
2022-12-04T17:10:54.169Z,4.90
2022-12-04T17:13:21.643Z,5.00
2022-12-04T17:15:48.827Z,5.10
2022-12-04T17:18:20.720Z,5.10
2022-12-04T17:20:48.148Z,5.10
2022-12-04T17:23:14.870Z,5.20
2022-12-04T17:25:41.490Z,5.30
2022-12-04T17:28:08.237Z,5.30
2022-12-04T17:30:36.499Z,5.30
2022-12-04T17:33:04.055Z,5.30
2022-12-04T17:35:36.709Z,5.40
2022-12-04T17:38:06.251Z,5.40
2022-12-04T17:40:33.427Z,5.40
2022-12-04T17:43:00.071Z,5.30
2022-12-04T17:45:26.652Z,5.10
2022-12-04T17:47:53.239Z,5.10
2022-12-04T17:50:19.861Z,5.10
2022-12-04T17:52:46.416Z,5.10
2022-12-04T17:55:13.035Z,5.30
2022-12-04T17:57:39.585Z,5.30
2022-12-04T18:00:07.893Z,5.30
2022-12-04T18:02:34.459Z,5.30
2022-12-04T18:05:01.497Z,5.20
2022-12-04T18:07:28.045Z,5.30
2022-12-04T18:09:54.867Z,5.30
2022-12-04T18:12:21.570Z,5.30
2022-12-04T18:14:48.112Z,5.20
2022-12-04T18:17:17.416Z,5.20
2022-12-04T18:19:43.956Z,5.30
2022-12-04T18:22:10.503Z,5.30
2022-12-04T18:24:37.254Z,5.20
2022-12-04T18:27:03.974Z,5.40
2022-12-04T18:29:30.704Z,5.40
2022-12-04T18:31:57.335Z,5.30
2022-12-04T18:34:23.922Z,5.40
2022-12-04T18:36:50.676Z,5.40
2022-12-04T18:39:21.260Z,5.40
2022-12-04T18:41:48.182Z,5.40
2022-12-04T18:44:15.168Z,5.40
2022-12-04T18:46:42.315Z,5.40
2022-12-04T18:49:09.874Z,5.40
2022-12-04T18:51:40.980Z,5.30
2022-12-04T18:54:12.031Z,5.30
2022-12-04T18:56:38.640Z,5.20
2022-12-04T18:59:06.845Z,5.20
2022-12-04T19:01:33.544Z,5.30
2022-12-04T19:04:02.513Z,5.40
2022-12-04T19:06:33.835Z,5.40
2022-12-04T19:09:06.964Z,5.40
2022-12-04T19:11:34.145Z,5.60
2022-12-04T19:14:01.184Z,5.60
2022-12-04T19:16:27.903Z,5.60
2022-12-04T19:18:55.240Z,5.60
2022-12-04T19:21:21.823Z,5.60
2022-12-04T19:23:49.648Z,5.50
2022-12-04T19:26:16.388Z,5.60
2022-12-04T19:28:42.975Z,5.50
2022-12-04T19:31:16.757Z,5.60
2022-12-04T19:33:43.347Z,5.50
2022-12-04T19:36:10.935Z,5.50
2022-12-04T19:38:37.753Z,5.50
2022-12-04T19:41:10.458Z,5.60
2022-12-04T19:43:39.742Z,5.60
2022-12-04T19:46:06.665Z,5.60
2022-12-04T19:48:33.716Z,5.60
2022-12-04T19:51:04.408Z,5.60
2022-12-04T19:53:33.064Z,5.70
2022-12-04T19:56:03.876Z,5.70
2022-12-04T19:58:31.569Z,5.70
2022-12-04T20:00:59.559Z,5.60
2022-12-04T20:03:26.288Z,5.60
2022-12-04T20:05:53.106Z,5.70
2022-12-04T20:08:19.864Z,5.60
2022-12-04T20:10:46.592Z,5.60
2022-12-04T20:13:14.154Z,5.60
2022-12-04T20:15:40.788Z,5.50
2022-12-04T20:18:09.571Z,5.50
2022-12-04T20:20:36.293Z,5.50
2022-12-04T20:23:02.850Z,5.60
2022-12-04T20:25:29.406Z,5.60
2022-12-04T20:27:56.114Z,5.60
2022-12-04T20:30:22.849Z,5.60
2022-12-04T20:32:49.489Z,5.70
2022-12-04T20:35:16.107Z,5.70
2022-12-04T20:37:43.007Z,5.70
2022-12-04T20:40:09.810Z,5.70
2022-12-04T20:42:36.588Z,5.80
2022-12-04T20:45:03.317Z,5.90
2022-12-04T20:47:29.910Z,5.80
2022-12-04T20:49:56.781Z,5.70
2022-12-04T20:52:23.585Z,5.70
2022-12-04T20:54:50.160Z,5.60
2022-12-04T20:57:16.693Z,5.70
2022-12-04T20:59:43.614Z,5.80
2022-12-04T21:02:10.785Z,5.80
2022-12-04T21:04:38.201Z,5.70
2022-12-04T21:07:04.721Z,5.70
2022-12-04T21:09:31.412Z,5.80
2022-12-04T21:11:58.349Z,5.70
2022-12-04T21:14:44.488Z,5.60
2022-12-04T21:17:16.500Z,5.60
2022-12-04T21:19:43.105Z,5.60
2022-12-04T21:22:09.833Z,5.50
2022-12-04T21:24:38.663Z,5.50
2022-12-04T21:27:06.958Z,5.50
2022-12-04T21:29:34.673Z,5.50
2022-12-04T21:32:01.560Z,5.50
2022-12-04T21:34:28.112Z,5.50
2022-12-04T21:36:54.710Z,5.50
2022-12-04T21:39:23.776Z,5.40
2022-12-04T21:42:09.420Z,5.50
2022-12-04T21:44:36.031Z,5.60
2022-12-04T21:47:02.563Z,5.60
2022-12-04T21:49:29.110Z,5.60
2022-12-04T21:51:57.702Z,5.50
2022-12-04T21:54:25.739Z,5.50
2022-12-04T21:56:52.270Z,5.50
2022-12-04T21:59:18.823Z,5.50
2022-12-04T22:01:45.581Z,5.50
2022-12-04T22:04:12.269Z,5.50
2022-12-04T22:06:38.780Z,5.50
2022-12-04T22:09:09.648Z,5.50
2022-12-04T22:11:36.833Z,5.50
2022-12-04T22:14:03.695Z,5.50
2022-12-04T22:16:31.668Z,5.50
2022-12-04T22:18:59.532Z,5.50
2022-12-04T22:21:26.500Z,5.50
2022-12-04T22:24:00.418Z,5.50
2022-12-04T22:26:27.613Z,5.50
2022-12-04T22:28:54.285Z,5.50
2022-12-04T22:31:21.774Z,5.50
2022-12-04T22:33:49.228Z,5.60
2022-12-04T22:36:17.759Z,5.60
2022-12-04T22:39:07.764Z,5.80
2022-12-04T22:41:31.099Z,5.70
2022-12-04T22:43:57.825Z,5.60
2022-12-04T22:46:24.503Z,5.60
2022-12-04T22:48:51.043Z,5.50
2022-12-04T22:51:19.081Z,5.50
2022-12-04T22:53:46.716Z,5.50
2022-12-04T22:56:14.799Z,5.60
2022-12-04T22:58:41.726Z,5.60
2022-12-04T23:01:09.483Z,5.60
2022-12-04T23:03:36.145Z,5.60
2022-12-04T23:06:02.812Z,5.50
2022-12-04T23:08:29.563Z,5.50
2022-12-04T23:10:56.289Z,5.50
2022-12-04T23:13:22.893Z,5.50
2022-12-04T23:15:50.069Z,5.50
2022-12-04T23:18:16.675Z,5.50
2022-12-04T23:20:43.272Z,5.50
2022-12-04T23:23:09.852Z,5.50
2022-12-04T23:25:40.409Z,5.50
2022-12-04T23:28:07.649Z,5.50
2022-12-04T23:30:36.609Z,5.50
2022-12-04T23:33:03.358Z,5.50
2022-12-04T23:35:30.265Z,5.50
2022-12-04T23:37:56.792Z,5.40
2022-12-04T23:40:23.330Z,5.50
2022-12-04T23:42:49.906Z,5.40
2022-12-04T23:45:16.465Z,5.40
2022-12-04T23:47:43.535Z,5.50
2022-12-04T23:50:10.216Z,5.40
2022-12-04T23:52:36.781Z,5.40
2022-12-04T23:55:03.492Z,5.40
2022-12-04T23:57:30.064Z,5.40
2022-12-04T23:59:56.887Z,5.30
